Time;durP1;ratioP1;P1;durP2;ratioP2;P2;SDS_P1;SDS_P2;PMS_P1;PMS_P2;Temp;Humidity;BMP_temperature;BMP_pressure;BME280_temperature;BME280_humidity;BME280_pressure;Samples;Min_cycle;Max_cycle;Signal;HPM_P1;HPM_P2
2024/02/02 00:26:16;;;;;;;2.78;0.90;;;18.40;65.20;;;;;;6151008;22;20207;-85
2024/02/02 00:28:43;;;;;;;1.35;0.68;;;18.40;65.30;;;;;;6203336;22;20271;-86
2024/02/02 00:31:09;;;;;;;0.98;0.60;;;18.40;65.40;;;;;;6227635;22;20167;-86
2024/02/02 00:33:34;;;;;;;1.40;0.50;;;18.40;65.20;;;;;;6229013;22;20144;-86
2024/02/02 00:36:02;;;;;;;1.35;0.50;;;18.30;65.10;;;;;;6228428;22;20181;-86
2024/02/02 00:38:28;;;;;;;0.88;0.50;;;18.40;65.10;;;;;;6203483;23;20554;-86
2024/02/02 00:40:54;;;;;;;1.98;0.68;;;18.30;65.20;;;;;;6228026;22;20555;-85
2024/02/02 00:43:20;;;;;;;0.40;0.40;;;18.30;65.00;;;;;;6228655;23;20140;-86
2024/02/02 01:03:53;;;;;;;1.35;0.50;;;18.30;65.00;;;;;;6148521;23;20207;-85
2024/02/02 01:06:19;;;;;;;1.42;0.43;;;18.40;65.00;;;;;;6227411;22;20205;-86
2024/02/02 01:50:54;;;;;;;0.82;0.43;;;18.30;64.80;;;;;;6148419;23;20213;-86
2024/02/02 01:53:19;;;;;;;1.13;0.40;;;18.30;64.90;;;;;;6252587;22;20140;-86
2024/02/02 01:55:45;;;;;;;0.82;0.50;;;18.30;65.00;;;;;;6251967;22;20144;-86
2024/02/02 01:58:11;;;;;;;1.05;0.50;;;18.30;65.00;;;;;;6226282;23;20166;-86
2024/02/02 02:00:37;;;;;;;0.77;0.50;;;18.20;64.80;;;;;;6227556;23;20175;-86
2024/02/02 02:03:03;;;;;;;1.88;0.70;;;18.30;65.00;;;;;;6251486;22;20139;-86
2024/02/02 02:05:28;;;;;;;0.57;0.40;;;18.20;64.90;;;;;;6252043;22;20171;-85
2024/02/02 02:07:54;;;;;;;2.17;0.60;;;18.30;65.00;;;;;;6227861;23;20162;-86
2024/02/02 02:10:20;;;;;;;1.02;0.57;;;18.30;64.80;;;;;;6250499;22;20158;-87
2024/02/02 02:12:46;;;;;;;0.90;0.63;;;18.20;65.00;;;;;;6252868;22;20542;-85
2024/02/02 02:15:12;;;;;;;1.27;0.60;;;18.20;64.90;;;;;;6226952;22;20579;-86
2024/02/02 02:48:33;;;;;;;0.90;0.60;;;18.20;65.00;;;;;;6148554;23;20817;-86
2024/02/02 02:50:59;;;;;;;0.60;0.50;;;18.20;65.00;;;;;;6229118;22;20242;-86
2024/02/02 02:53:24;;;;;;;2.13;0.52;;;18.20;64.90;;;;;;6253964;22;20132;-86
2024/02/02 02:58:16;;;;;;;0.88;0.40;;;18.20;64.80;;;;;;6150420;23;20676;-86
2024/02/02 03:00:42;;;;;;;1.50;0.45;;;18.20;64.70;;;;;;6229015;23;20156;-85
2024/02/02 03:13:32;;;;;;;2.15;0.40;;;18.20;64.70;;;;;;6149566;23;20233;-85
2024/02/02 03:15:58;;;;;;;0.90;0.47;;;18.20;64.70;;;;;;6229414;23;20159;-85
2024/02/02 03:18:24;;;;;;;0.57;0.40;;;18.20;64.60;;;;;;6254822;22;20462;-86
2024/02/02 03:20:50;;;;;;;2.05;0.70;;;18.20;64.60;;;;;;6229182;23;20152;-86
2024/02/02 03:23:15;;;;;;;1.15;0.60;;;18.20;64.60;;;;;;6254834;22;20135;-86
2024/02/02 03:25:41;;;;;;;0.50;0.50;;;18.20;64.80;;;;;;6254512;22;20152;-86
2024/02/02 03:28:07;;;;;;;0.68;0.63;;;18.20;64.60;;;;;;6254321;22;20155;-86
2024/02/02 03:30:33;;;;;;;1.02;0.47;;;18.20;64.80;;;;;;6254369;22;20539;-86
2024/02/02 03:32:59;;;;;;;0.73;0.40;;;18.20;64.70;;;;;;6227507;22;20143;-86
2024/02/02 03:35:25;;;;;;;1.58;0.70;;;18.10;64.70;;;;;;6229093;23;20148;-85
2024/02/02 03:37:51;;;;;;;1.30;0.47;;;18.20;64.60;;;;;;6254656;22;20128;-85
2024/02/02 03:40:36;;;;;;;0.98;0.30;;;18.20;64.70;;;;;;6253677;22;20189;-87
2024/02/02 03:43:02;;;;;;;0.40;0.40;;;18.10;64.70;;;;;;6166681;22;20155;-86
2024/02/02 03:45:29;;;;;;;1.60;0.50;;;18.20;64.70;;;;;;6227318;23;20159;-86
2024/02/02 03:47:55;;;;;;;1.08;0.50;;;18.10;64.60;;;;;;6228876;22;20143;-86
2024/02/02 03:50:21;;;;;;;0.88;0.45;;;18.20;64.50;;;;;;6279873;22;20185;-86
2024/02/02 04:13:21;;;;;;;1.33;0.50;;;18.10;64.50;;;;;;6146425;23;20200;-84
2024/02/02 04:15:49;;;;;;;0.85;0.55;;;18.10;64.50;;;;;;6253798;22;20203;-87
2024/02/02 04:18:16;;;;;;;2.20;0.52;;;18.10;64.50;;;;;;6202682;22;20190;-87
2024/02/02 04:20:43;;;;;;;2.88;0.52;;;18.20;64.60;;;;;;6254002;22;20139;-87
2024/02/02 04:23:08;;;;;;;1.23;0.47;;;18.10;64.40;;;;;;6229164;22;20154;-86
2024/02/02 04:25:34;;;;;;;0.85;0.50;;;18.10;64.50;;;;;;6257928;22;20551;-85
2024/02/02 04:28:00;;;;;;;1.02;0.43;;;18.20;64.60;;;;;;6150217;22;20235;-86
2024/02/02 04:30:28;;;;;;;1.83;0.50;;;18.20;64.50;;;;;;6253442;22;20171;-86
2024/02/02 04:35:50;;;;;;;0.88;0.50;;;18.10;64.50;;;;;;6273727;22;20200;-88
2024/02/02 04:38:17;;;;;;;0.73;0.50;;;18.20;64.50;;;;;;6275167;22;20222;-86
2024/02/02 04:40:47;;;;;;;1.85;0.60;;;18.10;64.50;;;;;;6248745;22;20132;-86
2024/02/02 04:43:12;;;;;;;1.23;0.50;;;18.10;64.20;;;;;;6274893;22;20140;-86
2024/02/02 04:45:38;;;;;;;0.75;0.40;;;18.10;64.30;;;;;;6273509;22;20734;-86
2024/02/02 04:48:05;;;;;;;0.45;0.30;;;18.10;64.30;;;;;;6273999;22;20216;-86
2024/02/02 04:50:31;;;;;;;1.20;0.50;;;18.10;64.20;;;;;;6274678;22;20133;-86
2024/02/02 04:52:57;;;;;;;0.52;0.32;;;18.10;64.30;;;;;;6247265;22;20237;-86
2024/02/02 04:55:22;;;;;;;1.50;0.50;;;18.10;64.30;;;;;;6272578;22;20160;-86
2024/02/02 04:57:48;;;;;;;1.27;0.57;;;18.10;64.30;;;;;;6248374;22;20137;-86
2024/02/02 05:00:14;;;;;;;1.08;0.55;;;18.10;64.20;;;;;;6247833;22;20179;-86
2024/02/02 05:02:40;;;;;;;0.57;0.30;;;18.10;64.30;;;;;;6274811;22;20215;-86
2024/02/02 05:05:06;;;;;;;1.60;0.45;;;18.10;64.10;;;;;;6248452;22;20169;-86
2024/02/02 05:07:32;;;;;;;1.58;0.50;;;18.10;64.20;;;;;;6275051;22;20148;-86
2024/02/02 05:09:58;;;;;;;1.45;0.70;;;18.10;64.20;;;;;;6274805;22;20165;-86
2024/02/02 05:12:24;;;;;;;1.52;0.50;;;18.10;64.30;;;;;;6249003;22;20184;-87
2024/02/02 05:44:20;;;;;;;1.90;0.57;;;18.10;64.20;;;;;;6134746;22;20211;-86
2024/02/02 05:46:46;;;;;;;1.50;0.40;;;18.10;64.20;;;;;;6252059;22;20159;-86
2024/02/02 05:49:11;;;;;;;0.88;0.40;;;18.10;64.10;;;;;;6252974;22;20164;-86
2024/02/02 05:51:37;;;;;;;0.93;0.43;;;18.10;64.00;;;;;;6251036;22;20171;-86
2024/02/02 05:54:03;;;;;;;0.90;0.47;;;18.10;64.10;;;;;;6252997;22;20132;-85
2024/02/02 05:56:29;;;;;;;1.33;0.47;;;18.10;64.10;;;;;;6253665;22;20152;-85
2024/02/02 05:58:55;;;;;;;1.40;0.50;;;18.10;64.10;;;;;;6252425;22;20135;-84
2024/02/02 06:01:20;;;;;;;0.55;0.43;;;18.10;64.00;;;;;;6252103;22;20160;-86
2024/02/02 06:03:46;;;;;;;0.93;0.40;;;18.00;64.00;;;;;;6226115;23;20217;-85
2024/02/02 06:06:12;;;;;;;1.17;0.50;;;18.00;64.00;;;;;;6252510;22;20132;-85
2024/02/02 06:08:38;;;;;;;0.80;0.32;;;18.10;64.00;;;;;;6150808;22;20167;-86
2024/02/02 06:11:04;;;;;;;0.80;0.40;;;18.10;64.00;;;;;;6253986;22;20144;-86
2024/02/02 06:13:30;;;;;;;0.63;0.50;;;18.10;64.10;;;;;;6228042;23;20182;-85
2024/02/02 06:15:56;;;;;;;0.90;0.38;;;18.10;64.00;;;;;;6253419;22;20147;-85
2024/02/02 06:18:22;;;;;;;0.85;0.52;;;18.00;63.80;;;;;;6228297;22;20238;-85
2024/02/02 06:20:48;;;;;;;2.70;0.40;;;18.10;63.80;;;;;;6227093;22;20183;-85
2024/02/02 06:23:14;;;;;;;0.50;0.40;;;18.10;63.80;;;;;;6254028;22;20128;-84
2024/02/02 06:25:40;;;;;;;0.70;0.32;;;18.10;63.80;;;;;;6227968;23;20154;-86
2024/02/02 06:28:06;;;;;;;0.38;0.30;;;18.10;63.90;;;;;;6227669;22;20139;-85
2024/02/02 06:37:16;;;;;;;1.10;0.40;;;18.00;63.90;;;;;;6154365;22;20210;-86
2024/02/02 06:39:42;;;;;;;0.60;0.40;;;18.00;63.70;;;;;;6149487;22;20144;-85
2024/02/02 06:42:08;;;;;;;0.90;0.52;;;18.10;63.70;;;;;;6227066;23;20566;-85
2024/02/02 06:44:35;;;;;;;1.33;0.40;;;18.10;63.80;;;;;;6252054;22;20466;-85
2024/02/02 06:47:01;;;;;;;0.82;0.40;;;18.20;63.70;;;;;;6251006;22;20493;-85
2024/02/02 06:49:27;;;;;;;1.92;0.45;;;18.10;63.60;;;;;;6252135;22;20168;-85
2024/02/02 06:51:55;;;;;;;0.50;0.35;;;18.00;63.60;;;;;;6224278;23;20166;-85
2024/02/02 06:56:56;;;;;;;1.45;0.60;;;18.00;63.70;;;;;;6147903;23;20214;-86
2024/02/02 06:59:22;;;;;;;0.40;0.30;;;18.10;63.80;;;;;;6252276;22;20154;-86
2024/02/02 07:01:47;;;;;;;0.77;0.40;;;18.00;63.70;;;;;;6226468;22;20151;-86
2024/02/02 07:04:14;;;;;;;1.83;0.50;;;18.00;63.80;;;;;;6226405;23;20151;-86
2024/02/02 07:06:40;;;;;;;0.75;0.30;;;18.00;63.20;;;;;;6252584;22;20239;-86
2024/02/02 07:09:18;;;;;;;0.45;0.40;;;18.00;63.20;;;;;;6226410;23;20207;-86
2024/02/02 07:12:04;;;;;;;0.77;0.45;;;18.10;63.00;;;;;;6230059;22;20539;-85
2024/02/02 07:14:47;;;;;;;0.30;0.30;;;18.10;62.70;;;;;;6252261;22;20155;-86
2024/02/02 07:17:22;;;;;;;1.10;0.45;;;18.10;62.50;;;;;;6253510;22;20136;-86
2024/02/02 07:19:48;;;;;;;1.05;0.45;;;18.20;61.40;;;;;;6229651;22;20256;-86
2024/02/02 07:22:33;;;;;;;1.63;0.50;;;18.20;61.50;;;;;;6254077;22;20128;-86
2024/02/02 07:24:59;;;;;;;1.05;0.40;;;18.20;62.30;;;;;;6254165;22;20214;-86
2024/02/02 07:27:58;;;;;;;0.88;0.30;;;18.20;62.20;;;;;;6227764;23;20649;-86
2024/02/02 07:30:38;;;;;;;0.77;0.40;;;18.20;61.40;;;;;;6255181;22;20183;-86
2024/02/02 07:33:18;;;;;;;1.23;0.50;;;18.20;60.80;;;;;;6152077;22;20135;-86
2024/02/02 07:35:43;;;;;;;0.57;0.45;;;18.30;61.50;;;;;;6231193;22;20159;-86
2024/02/02 07:38:23;;;;;;;0.43;0.40;;;18.30;61.50;;;;;;6229807;22;20571;-86
2024/02/02 07:41:04;;;;;;;1.05;0.50;;;18.30;61.00;;;;;;6254644;22;20552;-86
2024/02/02 07:43:32;;;;;;;0.65;0.30;;;18.30;61.00;;;;;;6228463;22;20253;-86
2024/02/02 07:46:00;;;;;;;0.90;0.52;;;18.30;61.00;;;;;;6227300;22;20243;-86
2024/02/02 07:48:26;;;;;;;0.70;0.40;;;18.30;61.40;;;;;;6253971;22;20241;-86
2024/02/02 07:50:52;;;;;;;0.80;0.40;;;18.30;61.10;;;;;;6254343;22;20551;-86
2024/02/02 07:53:18;;;;;;;1.40;0.60;;;18.20;61.20;;;;;;6253869;22;20150;-86
2024/02/02 07:55:43;;;;;;;0.57;0.47;;;18.30;61.90;;;;;;6255159;22;20136;-85
2024/02/02 07:58:09;;;;;;;0.90;0.30;;;18.30;61.40;;;;;;6274938;22;20279;-86
2024/02/02 08:00:35;;;;;;;2.45;0.50;;;18.30;60.10;;;;;;6273386;22;20524;-87
2024/02/02 08:03:01;;;;;;;1.15;0.57;;;18.30;60.60;;;;;;6274495;22;20144;-86
2024/02/02 08:05:28;;;;;;;0.95;0.50;;;18.30;60.70;;;;;;6248805;22;20175;-85
2024/02/02 08:07:55;;;;;;;1.20;0.60;;;18.40;60.90;;;;;;6274035;22;20582;-86
2024/02/02 08:10:20;;;;;;;0.40;0.40;;;18.30;61.20;;;;;;6273477;22;20214;-88
2024/02/02 08:12:46;;;;;;;0.77;0.50;;;18.40;60.20;;;;;;6269053;22;20628;-85
2024/02/02 08:15:12;;;;;;;0.57;0.43;;;18.40;59.70;;;;;;6275095;22;20133;-85
2024/02/02 08:17:38;;;;;;;0.88;0.40;;;18.40;60.10;;;;;;6274865;22;20137;-86
2024/02/02 08:20:04;;;;;;;0.73;0.40;;;18.40;59.70;;;;;;6248757;22;20149;-86
2024/02/02 08:22:30;;;;;;;0.73;0.30;;;18.40;59.10;;;;;;6275964;22;20152;-86
2024/02/02 08:24:55;;;;;;;1.08;0.40;;;18.40;60.30;;;;;;6250171;22;20477;-87
2024/02/02 08:27:23;;;;;;;0.30;0.30;;;18.40;59.40;;;;;;6276163;22;20637;-88
2024/02/02 08:29:49;;;;;;;0.30;0.30;;;18.40;59.50;;;;;;6250410;22;20484;-86
2024/02/02 08:32:18;;;;;;;0.55;0.40;;;18.50;59.10;;;;;;6250421;22;20149;-86
2024/02/02 08:34:43;;;;;;;0.68;0.45;;;18.40;59.70;;;;;;6277629;22;20157;-86
2024/02/02 08:37:09;;;;;;;0.38;0.30;;;18.40;59.70;;;;;;6251079;22;20190;-86
2024/02/02 08:39:36;;;;;;;1.38;0.57;;;18.50;58.80;;;;;;6277193;22;20153;-85
2024/02/02 08:42:21;;;;;;;0.57;0.35;;;18.50;59.30;;;;;;6276779;22;20137;-88
2024/02/02 08:44:51;;;;;;;1.13;0.60;;;18.50;59.50;;;;;;6276929;22;20144;-87
2024/02/02 08:47:17;;;;;;;0.60;0.30;;;18.50;59.70;;;;;;6277042;22;20136;-86
2024/02/02 08:49:55;;;;;;;0.30;0.30;;;18.50;59.10;;;;;;6277927;22;20169;-87
2024/02/02 08:52:38;;;;;;;0.32;0.30;;;18.40;59.20;;;;;;6275099;22;20674;-87
2024/02/02 08:55:06;;;;;;;0.38;0.30;;;18.50;58.40;;;;;;6251102;22;20242;-87
2024/02/02 08:57:40;;;;;;;0.65;0.40;;;18.50;59.10;;;;;;6250700;22;20175;-87
2024/02/02 09:00:12;;;;;;;0.63;0.40;;;18.50;59.80;;;;;;6251005;22;20231;-86
2024/02/02 09:03:05;;;;;;;0.47;0.28;;;18.40;60.00;;;;;;6276423;22;20149;-88
2024/02/02 09:05:47;;;;;;;1.40;0.30;;;18.40;59.20;;;;;;6275943;22;20153;-87
2024/02/02 09:08:35;;;;;;;0.20;0.20;;;18.50;59.00;;;;;;6282005;22;20186;-86
2024/02/02 09:11:16;;;;;;;0.20;0.20;;;18.40;60.00;;;;;;6254827;22;20148;-86
2024/02/02 09:13:43;;;;;;;1.58;0.30;;;18.40;60.20;;;;;;6276101;22;20681;-86
2024/02/02 09:16:14;;;;;;;1.58;0.52;;;18.40;60.00;;;;;;6252025;22;20202;-86
2024/02/02 09:18:44;;;;;;;0.50;0.40;;;18.40;59.60;;;;;;6277063;22;20139;-86
2024/02/02 09:21:14;;;;;;;0.88;0.43;;;18.40;60.10;;;;;;6252130;22;20190;-88
2024/02/02 09:23:48;;;;;;;0.82;0.30;;;18.40;60.30;;;;;;6251173;22;20365;-86
2024/02/02 09:26:15;;;;;;;1.00;0.50;;;18.40;59.80;;;;;;6251870;22;20148;-86
2024/02/02 09:28:42;;;;;;;1.05;0.30;;;18.40;59.80;;;;;;6278489;22;20263;-87
2024/02/02 09:31:15;;;;;;;0.50;0.22;;;18.50;58.70;;;;;;6277215;22;20160;-87
2024/02/02 09:33:46;;;;;;;1.10;0.40;;;18.40;59.10;;;;;;6277338;22;20186;-88
2024/02/02 09:36:12;;;;;;;0.75;0.32;;;18.40;59.40;;;;;;6277402;22;20175;-87
2024/02/02 09:38:57;;;;;;;0.40;0.40;;;18.50;58.50;;;;;;6251993;22;20568;-87
2024/02/02 09:41:55;;;;;;;0.35;0.30;;;18.50;59.40;;;;;;6241801;23;20145;-87
2024/02/02 10:03:04;;;;;;;1.98;0.35;;;18.60;58.30;;;;;;6194571;22;20216;-84
2024/02/02 10:05:46;;;;;;;2.65;0.40;;;18.50;58.50;;;;;;6264029;22;20225;-86
2024/02/02 10:08:48;;;;;;;1.33;0.55;;;18.60;58.50;;;;;;6258635;22;20147;-87
2024/02/02 10:11:35;;;;;;;2.38;0.40;;;18.60;58.60;;;;;;6151084;22;20173;-86
2024/02/02 10:14:26;;;;;;;0.88;0.40;;;18.60;58.10;;;;;;6229950;22;20200;-86
2024/02/02 10:17:02;;;;;;;1.27;0.20;;;18.60;58.60;;;;;;6230364;22;20159;-86
2024/02/02 10:19:46;;;;;;;0.40;0.30;;;18.60;58.60;;;;;;6231094;23;20143;-87
2024/02/02 10:22:33;;;;;;;1.50;0.50;;;18.60;58.80;;;;;;6229943;23;20148;-85
2024/02/02 10:25:06;;;;;;;2.80;0.40;;;18.60;58.40;;;;;;6229218;23;20139;-85
2024/02/02 10:27:56;;;;;;;1.35;0.43;;;18.60;58.30;;;;;;6230068;22;20166;-86
2024/02/02 10:30:46;;;;;;;1.27;0.47;;;18.60;58.80;;;;;;6259979;22;20203;-87
2024/02/02 10:33:49;;;;;;;0.50;0.40;;;18.50;59.00;;;;;;6256151;22;20149;-85
2024/02/02 10:37:01;;;;;;;6.15;0.80;;;18.50;58.70;;;;;;6202810;23;20163;-85
2024/02/02 10:39:51;;;;;;;5.72;0.65;;;18.50;58.90;;;;;;6258351;22;20158;-85
2024/02/02 10:42:38;;;;;;;3.05;0.45;;;18.50;58.50;;;;;;6229872;23;20611;-85
2024/02/02 10:45:34;;;;;;;0.77;0.40;;;18.60;58.30;;;;;;6245952;22;20132;-86
2024/02/02 10:48:30;;;;;;;1.67;0.50;;;18.50;59.00;;;;;;6256173;22;20665;-86
2024/02/02 10:51:19;;;;;;;2.50;0.40;;;18.50;59.00;;;;;;6240711;22;20140;-86
2024/02/02 10:54:20;;;;;;;1.83;0.40;;;18.50;59.30;;;;;;6232179;22;20155;-86
2024/02/02 10:57:09;;;;;;;2.15;0.52;;;18.50;58.70;;;;;;6203419;23;20151;-85
2024/02/02 10:59:58;;;;;;;2.22;0.32;;;18.50;59.30;;;;;;6256361;22;20144;-85
2024/02/02 11:02:49;;;;;;;4.50;0.60;;;18.50;59.10;;;;;;6257884;22;20201;-86
2024/02/02 11:05:21;;;;;;;4.70;0.60;;;18.50;59.00;;;;;;6232403;22;20136;-85
2024/02/02 11:07:56;;;;;;;1.70;0.40;;;18.50;59.00;;;;;;6256945;22;20596;-86
2024/02/02 11:10:29;;;;;;;1.08;0.30;;;18.60;58.10;;;;;;6232727;22;20205;-85
2024/02/02 11:13:05;;;;;;;1.45;0.50;;;18.60;58.00;;;;;;6231657;23;20182;-85
2024/02/02 11:16:08;;;;;;;0.75;0.40;;;18.60;58.80;;;;;;6258614;22;20139;-86
2024/02/02 11:19:10;;;;;;;0.85;0.32;;;18.60;57.70;;;;;;6256921;22;20155;-86
2024/02/02 11:21:57;;;;;;;0.82;0.40;;;18.60;59.00;;;;;;6237056;22;20154;-85
2024/02/02 11:24:38;;;;;;;2.25;0.55;;;18.60;58.00;;;;;;6246217;22;20131;-86
2024/02/02 11:27:08;;;;;;;0.57;0.30;;;18.60;58.60;;;;;;6250090;22;20146;-86
2024/02/02 11:29:54;;;;;;;1.10;0.40;;;18.50;58.20;;;;;;6260641;22;20300;-85
2024/02/02 11:32:34;;;;;;;1.55;0.35;;;18.60;58.70;;;;;;6238254;22;20238;-85
2024/02/02 11:35:20;;;;;;;0.70;0.47;;;18.60;58.70;;;;;;6256946;22;20185;-86
2024/02/02 11:38:08;;;;;;;1.60;0.40;;;18.50;58.70;;;;;;6230620;22;20513;-85
2024/02/02 11:40:33;;;;;;;0.88;0.38;;;18.60;58.20;;;;;;6157474;22;20131;-85
2024/02/02 11:42:59;;;;;;;0.55;0.50;;;18.50;58.90;;;;;;6230727;23;20162;-85
2024/02/02 11:45:26;;;;;;;0.60;0.28;;;18.50;58.60;;;;;;6230212;23;20140;-84
2024/02/02 11:48:08;;;;;;;1.05;0.45;;;18.50;59.00;;;;;;6230011;22;20225;-85
2024/02/02 11:50:37;;;;;;;0.80;0.45;;;18.50;59.00;;;;;;6233317;22;20178;-85
2024/02/02 11:53:41;;;;;;;1.60;0.60;;;18.50;59.30;;;;;;6187497;23;20184;-86
2024/02/02 11:56:15;;;;;;;1.05;0.40;;;18.40;58.20;;;;;;6169499;23;20174;-86
2024/02/02 11:58:42;;;;;;;2.35;0.40;;;18.60;57.90;;;;;;6140602;23;20169;-86
2024/02/02 12:01:24;;;;;;;1.25;0.40;;;18.60;58.60;;;;;;6139393;23;20138;-86
2024/02/02 12:04:19;;;;;;;0.93;0.40;;;18.60;58.60;;;;;;6124370;23;20168;-86
2024/02/02 12:06:58;;;;;;;0.55;0.40;;;18.60;59.40;;;;;;6100631;23;20464;-85
2024/02/02 12:11:52;;;;;;;1.30;0.30;;;18.60;58.70;;;;;;6274181;22;20224;-85
2024/02/02 12:14:31;;;;;;;0.40;0.20;;;18.60;58.60;;;;;;6252750;22;20225;-85
2024/02/02 12:16:58;;;;;;;0.52;0.25;;;18.60;58.10;;;;;;6277630;22;20629;-85
2024/02/02 12:19:25;;;;;;;1.02;0.20;;;18.60;58.80;;;;;;6275495;22;20152;-85
2024/02/02 12:32:12;;;;;;;1.33;0.35;;;18.50;58.50;;;;;;6182236;22;20207;-86
2024/02/02 12:34:39;;;;;;;0.82;0.40;;;18.60;59.10;;;;;;6255422;22;20152;-86
2024/02/02 12:37:05;;;;;;;0.50;0.30;;;18.50;58.70;;;;;;6256692;22;20158;-87
2024/02/02 12:39:31;;;;;;;0.68;0.30;;;18.50;59.10;;;;;;6255835;22;20215;-86
2024/02/02 12:41:58;;;;;;;0.75;0.40;;;18.40;58.90;;;;;;6255918;22;20162;-86
2024/02/02 12:44:26;;;;;;;0.63;0.30;;;18.50;57.80;;;;;;6229872;23;20152;-86
2024/02/02 12:46:52;;;;;;;0.52;0.32;;;18.60;58.20;;;;;;6255644;22;20148;-86
2024/02/02 12:49:19;;;;;;;0.82;0.30;;;18.60;58.30;;;;;;6230277;22;20187;-86
2024/02/02 12:51:44;;;;;;;0.63;0.40;;;18.60;58.30;;;;;;6230038;22;20144;-86
2024/02/02 12:54:13;;;;;;;0.95;0.20;;;18.60;58.20;;;;;;6231097;23;20144;-86
2024/02/02 12:56:39;;;;;;;1.48;0.45;;;18.60;58.60;;;;;;6230649;22;20567;-86
2024/02/02 12:59:05;;;;;;;0.45;0.30;;;18.60;58.40;;;;;;6254263;22;20194;-85
2024/02/02 13:01:32;;;;;;;0.73;0.30;;;18.60;58.30;;;;;;6253715;22;20155;-86
2024/02/02 13:03:57;;;;;;;0.95;0.30;;;18.50;58.30;;;;;;6253803;22;20151;-84
2024/02/02 13:06:24;;;;;;;0.60;0.40;;;18.50;58.60;;;;;;6254208;22;20554;-86
2024/02/02 13:08:52;;;;;;;0.47;0.30;;;18.50;58.60;;;;;;6252294;22;20171;-86
2024/02/02 13:11:22;;;;;;;0.55;0.30;;;18.50;58.30;;;;;;6251307;22;20136;-86
2024/02/02 13:13:49;;;;;;;1.48;0.40;;;18.50;58.60;;;;;;6228098;22;20148;-86
2024/02/02 13:16:23;;;;;;;0.38;0.30;;;18.60;58.30;;;;;;6226835;23;20227;-86
2024/02/02 13:18:51;;;;;;;0.80;0.32;;;18.60;58.60;;;;;;6225370;22;20155;-86
2024/02/02 13:21:27;;;;;;;0.90;0.38;;;18.60;58.40;;;;;;6252164;22;20165;-86
2024/02/02 13:23:56;;;;;;;0.75;0.40;;;18.60;58.20;;;;;;6228087;22;20458;-86
2024/02/02 13:26:21;;;;;;;0.80;0.40;;;18.60;58.30;;;;;;6251171;22;20144;-86
2024/02/02 13:28:49;;;;;;;0.40;0.30;;;18.60;58.40;;;;;;6251767;22;20262;-88
2024/02/02 13:31:17;;;;;;;1.60;0.50;;;18.50;58.80;;;;;;6250165;22;20198;-87
2024/02/02 13:34:01;;;;;;;0.95;0.30;;;18.50;58.30;;;;;;6227174;22;20156;-87
2024/02/02 13:36:29;;;;;;;0.65;0.50;;;18.50;58.50;;;;;;6227573;22;20150;-86
2024/02/02 13:38:56;;;;;;;0.70;0.30;;;18.50;57.90;;;;;;6252590;22;20467;-86
2024/02/02 13:41:22;;;;;;;0.50;0.32;;;18.50;57.80;;;;;;6255107;22;20139;-86
2024/02/02 13:43:59;;;;;;;0.30;0.30;;;18.60;58.20;;;;;;6254809;22;20167;-86
2024/02/02 13:46:30;;;;;;;0.43;0.30;;;18.60;58.20;;;;;;6253352;22;20608;-87
2024/02/02 13:48:57;;;;;;;0.82;0.20;;;18.60;58.70;;;;;;6229548;22;20210;-86
2024/02/02 13:51:25;;;;;;;0.98;0.35;;;18.60;58.10;;;;;;6230590;22;20528;-87
2024/02/02 13:53:56;;;;;;;1.33;0.40;;;18.60;58.20;;;;;;6254772;22;20234;-86
2024/02/02 13:56:40;;;;;;;0.20;0.20;;;18.60;58.10;;;;;;6230269;22;20175;-86
2024/02/02 13:59:06;;;;;;;2.90;0.40;;;18.50;58.50;;;;;;6235473;22;20190;-86
2024/02/02 14:01:32;;;;;;;0.63;0.38;;;18.60;58.30;;;;;;6230194;23;20140;-86
2024/02/02 14:03:58;;;;;;;0.32;0.30;;;18.50;58.30;;;;;;6231414;23;20151;-85
2024/02/02 14:06:26;;;;;;;0.35;0.20;;;18.50;58.30;;;;;;6231373;23;20148;-86
2024/02/02 14:08:53;;;;;;;0.60;0.32;;;18.60;58.30;;;;;;6255672;22;20179;-86
2024/02/02 14:11:24;;;;;;;0.70;0.60;;;18.60;58.40;;;;;;6256582;22;20162;-86
2024/02/02 14:14:02;;;;;;;0.65;0.30;;;18.60;58.30;;;;;;6239247;22;20147;-87
2024/02/02 14:16:31;;;;;;;0.57;0.28;;;18.60;58.40;;;;;;6246345;22;20207;-86
2024/02/02 14:19:00;;;;;;;0.88;0.30;;;18.50;58.40;;;;;;6276381;22;20179;-86
2024/02/02 14:21:29;;;;;;;1.88;0.30;;;18.60;58.20;;;;;;6267771;22;20135;-87
2024/02/02 14:24:10;;;;;;;0.30;0.30;;;18.50;58.40;;;;;;6242530;22;20144;-87
2024/02/02 14:26:53;;;;;;;0.40;0.30;;;18.60;58.20;;;;;;6243161;22;20159;-85
2024/02/02 14:30:06;;;;;;;1.02;0.30;;;18.60;58.30;;;;;;6271761;22;20223;-87
2024/02/02 14:32:38;;;;;;;3.50;0.38;;;18.60;58.40;;;;;;6269866;22;20196;-85
2024/02/02 14:35:10;;;;;;;0.65;0.20;;;18.60;58.30;;;;;;6295303;22;20147;-86
2024/02/02 14:37:36;;;;;;;0.75;0.40;;;18.60;58.50;;;;;;6255035;23;20175;-86
2024/02/02 14:40:14;;;;;;;0.68;0.30;;;18.60;58.20;;;;;;6205388;23;20172;-85
2024/02/02 14:42:44;;;;;;;0.35;0.30;;;18.60;58.70;;;;;;6208866;23;20149;-85
2024/02/02 14:45:13;;;;;;;0.57;0.30;;;18.60;57.90;;;;;;6204951;23;20203;-88
2024/02/02 14:47:47;;;;;;;1.60;0.35;;;18.60;58.30;;;;;;6204342;23;20153;-87
2024/02/02 14:50:17;;;;;;;0.52;0.28;;;18.60;58.50;;;;;;6171835;23;20186;-86
2024/02/02 14:52:50;;;;;;;0.52;0.40;;;18.60;58.40;;;;;;6147498;23;20162;-87
2024/02/02 14:55:16;;;;;;;1.17;0.50;;;18.60;58.60;;;;;;6152450;23;20127;-86
2024/02/02 14:57:44;;;;;;;0.40;0.30;;;18.60;58.00;;;;;;6121365;23;20234;-86
2024/02/02 15:00:18;;;;;;;0.60;0.30;;;18.60;58.30;;;;;;6147607;23;20147;-87
2024/02/02 15:02:45;;;;;;;0.30;0.30;;;18.70;58.40;;;;;;6125328;23;20149;-86
2024/02/02 15:05:58;;;;;;;1.80;0.30;;;18.60;58.60;;;;;;6171010;23;20150;-87
2024/02/02 15:08:32;;;;;;;1.75;0.40;;;18.60;58.40;;;;;;6005322;23;20173;-88
2024/02/02 15:10:58;;;;;;;1.00;0.35;;;18.60;58.40;;;;;;6020106;23;20162;-87
2024/02/02 15:13:31;;;;;;;3.78;0.50;;;18.60;58.10;;;;;;6021463;23;20162;-87
2024/02/02 15:16:04;;;;;;;4.80;0.50;;;18.60;58.30;;;;;;6083817;23;20267;-86
2024/02/02 15:18:30;;;;;;;3.65;0.50;;;18.70;58.10;;;;;;6013461;23;20184;-87
2024/02/02 15:20:56;;;;;;;3.38;0.50;;;18.70;58.30;;;;;;6036198;23;20148;-86
2024/02/02 15:23:25;;;;;;;3.50;0.45;;;18.60;58.50;;;;;;6029302;23;20157;-86
2024/02/02 15:26:36;;;;;;;2.42;0.40;;;18.60;58.40;;;;;;6057479;23;20230;-87
2024/02/02 15:37:17;;;;;;;0.70;0.35;;;18.60;58.10;;;;;;6093039;23;20245;-87
2024/02/02 15:47:08;;;;;;;1.25;0.30;;;18.50;58.50;;;;;;6131758;23;20191;-86
2024/02/02 15:49:34;;;;;;;1.92;0.38;;;18.50;58.30;;;;;;6108017;23;20183;-87
2024/02/02 15:52:00;;;;;;;2.72;0.32;;;18.60;58.50;;;;;;6103182;23;20136;-85
2024/02/02 15:54:26;;;;;;;1.98;0.40;;;18.50;58.60;;;;;;6080305;23;20152;-86
2024/02/02 15:56:52;;;;;;;0.60;0.38;;;18.50;58.80;;;;;;6102076;23;20179;-86
2024/02/02 15:59:21;;;;;;;1.38;0.22;;;18.50;58.60;;;;;;6079004;23;20626;-86
2024/02/02 16:01:49;;;;;;;3.70;0.40;;;18.50;58.90;;;;;;6102006;23;20152;-87
2024/02/02 16:04:17;;;;;;;3.30;0.38;;;18.50;58.80;;;;;;6080624;23;20203;-85
2024/02/02 16:06:44;;;;;;;0.85;0.28;;;18.50;59.20;;;;;;6105348;23;20211;-85
2024/02/02 16:09:10;;;;;;;0.85;0.40;;;18.50;58.80;;;;;;6103525;23;20163;-85
2024/02/02 16:11:36;;;;;;;1.13;0.30;;;18.50;58.80;;;;;;6101493;23;20148;-87
2024/02/02 16:14:02;;;;;;;4.57;0.40;;;18.50;59.10;;;;;;6101573;23;20203;-86
2024/02/02 16:16:28;;;;;;;0.80;0.40;;;18.50;59.10;;;;;;6101633;23;20500;-85
2024/02/02 16:18:53;;;;;;;1.02;0.30;;;18.50;58.80;;;;;;6136220;22;20538;-85
2024/02/02 16:21:19;;;;;;;0.40;0.30;;;18.50;59.10;;;;;;6278010;22;20133;-86
2024/02/02 16:23:49;;;;;;;1.02;0.25;;;18.50;58.60;;;;;;6277800;22;20171;-85
2024/02/02 16:26:17;;;;;;;0.40;0.30;;;18.60;58.50;;;;;;6279318;22;20170;-85
2024/02/02 16:28:43;;;;;;;0.90;0.30;;;18.60;58.90;;;;;;6278855;22;20173;-84
2024/02/02 16:31:31;;;;;;;1.75;0.30;;;18.60;58.30;;;;;;6252316;22;20153;-86
2024/02/02 16:34:02;;;;;;;6.70;0.40;;;18.70;57.70;;;;;;6254645;22;20153;-85
2024/02/02 16:38:06;;;;;;;;;;;;;;;;;;;;;
2024/02/02 16:39:59;;;;;;;3.78;0.30;;;18.60;58.70;;;;;;6118427;23;20485;-87
2024/02/02 16:42:27;;;;;;;1.25;0.30;;;18.60;58.60;;;;;;6081739;23;20501;-86
2024/02/02 16:44:53;;;;;;;1.77;0.40;;;18.70;58.30;;;;;;6105091;23;20179;-83
2024/02/02 16:47:20;;;;;;;0.47;0.30;;;18.70;58.70;;;;;;6084142;23;20152;-85
2024/02/02 16:49:48;;;;;;;1.95;0.38;;;18.70;58.50;;;;;;6084692;23;20172;-86
2024/02/02 16:52:14;;;;;;;1.42;0.20;;;18.70;58.30;;;;;;6058455;23;20279;-88
2024/02/02 16:54:46;;;;;;;0.65;0.30;;;18.70;58.80;;;;;;6082858;23;20160;-84
2024/02/02 16:57:13;;;;;;;1.35;0.32;;;18.60;58.80;;;;;;6084182;23;20144;-85
2024/02/02 16:59:39;;;;;;;3.00;0.43;;;18.70;58.80;;;;;;6103679;23;20200;-86
2024/02/02 17:02:05;;;;;;;1.85;0.20;;;18.70;58.60;;;;;;6058126;23;20152;-88
2024/02/02 17:04:31;;;;;;;2.78;0.40;;;18.80;58.40;;;;;;6058715;23;20156;-87
2024/02/02 17:06:57;;;;;;;1.17;0.30;;;18.80;58.30;;;;;;6102512;23;20184;-87
2024/02/02 17:09:24;;;;;;;1.63;0.30;;;18.80;58.30;;;;;;6142300;23;20238;-85